sensor_id;sensor_type;location;lat;lon;timestamp;P1;durP1;ratioP1;P2;durP2;ratioP2
8252;SDS011;61313;48.396;10.008;2023-04-03T00:00:07;5.03;;;4.50;;
8252;SDS011;61313;48.396;10.008;2023-04-03T00:02:33;5.43;;;4.93;;
8252;SDS011;61313;48.396;10.008;2023-04-03T00:04:59;5.57;;;5.00;;
8252;SDS011;61313;48.396;10.008;2023-04-03T00:07:24;5.70;;;5.07;;
8252;SDS011;61313;48.396;10.008;2023-04-03T00:09:50;5.50;;;4.80;;
8252;SDS011;61313;48.396;10.008;2023-04-03T00:12:15;5.03;;;4.53;;
8252;SDS011;61313;48.396;10.008;2023-04-03T00:14:41;6.30;;;5.57;;
8252;SDS011;61313;48.396;10.008;2023-04-03T00:17:06;5.60;;;5.10;;
8252;SDS011;61313;48.396;10.008;2023-04-03T00:19:32;6.00;;;4.37;;
8252;SDS011;61313;48.396;10.008;2023-04-03T00:21:57;6.67;;;6.00;;
8252;SDS011;61313;48.396;10.008;2023-04-03T00:24:22;5.20;;;4.70;;
8252;SDS011;61313;48.396;10.008;2023-04-03T00:26:48;5.40;;;4.90;;
8252;SDS011;61313;48.396;10.008;2023-04-03T00:29:13;5.60;;;5.10;;
8252;SDS011;61313;48.396;10.008;2023-04-03T00:31:39;4.83;;;4.40;;
8252;SDS011;61313;48.396;10.008;2023-04-03T00:34:05;5.97;;;5.37;;
8252;SDS011;61313;48.396;10.008;2023-04-03T00:36:30;5.73;;;4.77;;
8252;SDS011;61313;48.396;10.008;2023-04-03T00:38:56;6.03;;;5.43;;
8252;SDS011;61313;48.396;10.008;2023-04-03T00:41:21;5.67;;;5.10;;
8252;SDS011;61313;48.396;10.008;2023-04-03T00:43:47;6.27;;;5.43;;
8252;SDS011;61313;48.396;10.008;2023-04-03T00:46:12;5.50;;;4.90;;
8252;SDS011;61313;48.396;10.008;2023-04-03T00:48:41;5.00;;;4.40;;
8252;SDS011;61313;48.396;10.008;2023-04-03T00:51:19;6.40;;;5.77;;
8252;SDS011;61313;48.396;10.008;2023-04-03T00:53:53;4.70;;;4.30;;
8252;SDS011;61313;48.396;10.008;2023-04-03T00:56:24;6.00;;;5.23;;
8252;SDS011;61313;48.396;10.008;2023-04-03T00:58:52;5.50;;;5.00;;
8252;SDS011;61313;48.396;10.008;2023-04-03T01:01:25;5.60;;;5.10;;
8252;SDS011;61313;48.396;10.008;2023-04-03T01:03:52;5.80;;;5.30;;
8252;SDS011;61313;48.396;10.008;2023-04-03T01:06:20;5.50;;;4.90;;
8252;SDS011;61313;48.396;10.008;2023-04-03T01:08:49;6.27;;;4.80;;
8252;SDS011;61313;48.396;10.008;2023-04-03T01:11:16;5.30;;;4.80;;
8252;SDS011;61313;48.396;10.008;2023-04-03T01:13:41;5.43;;;5.03;;
8252;SDS011;61313;48.396;10.008;2023-04-03T01:16:07;5.60;;;4.90;;
8252;SDS011;61313;48.396;10.008;2023-04-03T01:18:33;5.43;;;4.90;;
8252;SDS011;61313;48.396;10.008;2023-04-03T01:26:14;4.67;;;4.27;;
8252;SDS011;61313;48.396;10.008;2023-04-03T01:28:40;3.70;;;3.40;;
8252;SDS011;61313;48.396;10.008;2023-04-03T01:33:54;4.30;;;3.90;;
8252;SDS011;61313;48.396;10.008;2023-04-03T01:36:21;4.23;;;3.93;;
8252;SDS011;61313;48.396;10.008;2023-04-03T01:38:52;5.20;;;4.27;;
8252;SDS011;61313;48.396;10.008;2023-04-03T01:41:19;4.67;;;4.00;;
8252;SDS011;61313;48.396;10.008;2023-04-03T01:43:46;5.40;;;4.00;;
8252;SDS011;61313;48.396;10.008;2023-04-03T01:46:12;5.20;;;3.93;;
8252;SDS011;61313;48.396;10.008;2023-04-03T01:48:38;4.20;;;3.80;;
8252;SDS011;61313;48.396;10.008;2023-04-03T01:51:03;4.17;;;3.77;;
8252;SDS011;61313;48.396;10.008;2023-04-03T01:53:29;4.57;;;3.90;;
8252;SDS011;61313;48.396;10.008;2023-04-03T01:55:54;5.93;;;4.50;;
8252;SDS011;61313;48.396;10.008;2023-04-03T01:58:20;3.97;;;3.60;;
8252;SDS011;61313;48.396;10.008;2023-04-03T02:00:45;5.53;;;3.83;;
8252;SDS011;61313;48.396;10.008;2023-04-03T02:03:10;4.30;;;3.90;;
8252;SDS011;61313;48.396;10.008;2023-04-03T02:05:36;6.67;;;4.70;;
8252;SDS011;61313;48.396;10.008;2023-04-03T02:08:01;4.00;;;3.60;;
8252;SDS011;61313;48.396;10.008;2023-04-03T02:10:27;4.27;;;3.90;;
8252;SDS011;61313;48.396;10.008;2023-04-03T02:12:52;4.10;;;3.80;;
8252;SDS011;61313;48.396;10.008;2023-04-03T02:15:18;4.77;;;4.23;;
8252;SDS011;61313;48.396;10.008;2023-04-03T02:17:43;7.33;;;4.17;;
8252;SDS011;61313;48.396;10.008;2023-04-03T02:20:09;4.77;;;3.80;;
8252;SDS011;61313;48.396;10.008;2023-04-03T02:22:35;7.23;;;4.13;;
8252;SDS011;61313;48.396;10.008;2023-04-03T02:25:01;5.97;;;4.60;;
8252;SDS011;61313;48.396;10.008;2023-04-03T02:27:26;7.00;;;4.13;;
8252;SDS011;61313;48.396;10.008;2023-04-03T02:29:52;5.03;;;4.40;;
8252;SDS011;61313;48.396;10.008;2023-04-03T02:32:17;5.13;;;4.50;;
8252;SDS011;61313;48.396;10.008;2023-04-03T02:34:43;5.07;;;4.67;;
8252;SDS011;61313;48.396;10.008;2023-04-03T02:37:08;4.43;;;4.03;;
8252;SDS011;61313;48.396;10.008;2023-04-03T02:39:34;4.43;;;4.03;;
8252;SDS011;61313;48.396;10.008;2023-04-03T02:42:00;4.63;;;4.27;;
8252;SDS011;61313;48.396;10.008;2023-04-03T02:44:25;5.90;;;5.33;;
8252;SDS011;61313;48.396;10.008;2023-04-03T02:46:50;5.97;;;5.07;;
8252;SDS011;61313;48.396;10.008;2023-04-03T02:49:16;4.37;;;3.77;;
8252;SDS011;61313;48.396;10.008;2023-04-03T02:51:42;4.90;;;4.50;;
8252;SDS011;61313;48.396;10.008;2023-04-03T02:54:07;5.90;;;5.07;;
8252;SDS011;61313;48.396;10.008;2023-04-03T02:56:33;12.13;;;5.97;;
8252;SDS011;61313;48.396;10.008;2023-04-03T02:58:58;4.20;;;3.90;;
8252;SDS011;61313;48.396;10.008;2023-04-03T03:01:24;5.00;;;4.50;;
8252;SDS011;61313;48.396;10.008;2023-04-03T03:03:51;5.63;;;4.77;;
8252;SDS011;61313;48.396;10.008;2023-04-03T03:06:17;5.00;;;4.50;;
8252;SDS011;61313;48.396;10.008;2023-04-03T03:08:43;4.77;;;4.07;;
8252;SDS011;61313;48.396;10.008;2023-04-03T03:11:09;4.50;;;4.10;;
8252;SDS011;61313;48.396;10.008;2023-04-03T03:13:35;5.03;;;4.50;;
8252;SDS011;61313;48.396;10.008;2023-04-03T03:16:01;4.83;;;4.20;;
8252;SDS011;61313;48.396;10.008;2023-04-03T03:18:27;4.53;;;3.70;;
8252;SDS011;61313;48.396;10.008;2023-04-03T03:20:53;4.90;;;4.47;;
8252;SDS011;61313;48.396;10.008;2023-04-03T03:23:20;3.43;;;3.13;;
8252;SDS011;61313;48.396;10.008;2023-04-03T03:25:47;3.63;;;3.30;;
8252;SDS011;61313;48.396;10.008;2023-04-03T03:28:12;3.13;;;2.83;;
8252;SDS011;61313;48.396;10.008;2023-04-03T03:30:38;2.53;;;2.33;;
8252;SDS011;61313;48.396;10.008;2023-04-03T03:33:03;3.10;;;2.80;;
8252;SDS011;61313;48.396;10.008;2023-04-03T03:35:29;5.90;;;2.90;;
8252;SDS011;61313;48.396;10.008;2023-04-03T03:37:54;3.57;;;2.53;;
8252;SDS011;61313;48.396;10.008;2023-04-03T03:40:20;3.50;;;3.20;;
8252;SDS011;61313;48.396;10.008;2023-04-03T03:42:46;5.50;;;3.07;;
8252;SDS011;61313;48.396;10.008;2023-04-03T03:45:11;3.00;;;2.50;;
8252;SDS011;61313;48.396;10.008;2023-04-03T03:47:36;3.30;;;3.10;;
8252;SDS011;61313;48.396;10.008;2023-04-03T03:50:02;11.70;;;3.20;;
8252;SDS011;61313;48.396;10.008;2023-04-03T03:52:28;4.90;;;2.80;;
8252;SDS011;61313;48.396;10.008;2023-04-03T03:54:55;3.03;;;2.63;;
8252;SDS011;61313;48.396;10.008;2023-04-03T03:57:21;4.93;;;3.07;;
8252;SDS011;61313;48.396;10.008;2023-04-03T03:59:46;3.90;;;2.87;;
8252;SDS011;61313;48.396;10.008;2023-04-03T04:02:13;3.53;;;3.23;;
8252;SDS011;61313;48.396;10.008;2023-04-03T04:04:39;4.00;;;3.60;;
8252;SDS011;61313;48.396;10.008;2023-04-03T04:07:05;6.17;;;3.53;;
8252;SDS011;61313;48.396;10.008;2023-04-03T04:09:30;5.20;;;3.20;;
8252;SDS011;61313;48.396;10.008;2023-04-03T04:11:55;3.50;;;3.07;;
8252;SDS011;61313;48.396;10.008;2023-04-03T04:14:21;19.67;;;3.97;;
8252;SDS011;61313;48.396;10.008;2023-04-03T04:16:47;3.57;;;3.27;;
8252;SDS011;61313;48.396;10.008;2023-04-03T04:19:12;5.10;;;4.33;;
8252;SDS011;61313;48.396;10.008;2023-04-03T04:21:38;5.50;;;5.10;;
8252;SDS011;61313;48.396;10.008;2023-04-03T04:24:04;3.40;;;3.00;;
8252;SDS011;61313;48.396;10.008;2023-04-03T04:26:30;4.03;;;3.13;;
8252;SDS011;61313;48.396;10.008;2023-04-03T04:28:56;3.67;;;3.30;;
8252;SDS011;61313;48.396;10.008;2023-04-03T04:31:22;3.23;;;2.93;;
8252;SDS011;61313;48.396;10.008;2023-04-03T04:33:47;5.57;;;2.73;;
8252;SDS011;61313;48.396;10.008;2023-04-03T04:36:12;3.80;;;3.00;;
8252;SDS011;61313;48.396;10.008;2023-04-03T04:38:39;5.47;;;3.70;;
8252;SDS011;61313;48.396;10.008;2023-04-03T04:41:05;5.60;;;4.33;;
8252;SDS011;61313;48.396;10.008;2023-04-03T04:43:31;3.83;;;3.53;;
8252;SDS011;61313;48.396;10.008;2023-04-03T04:46:00;9.20;;;3.27;;
8252;SDS011;61313;48.396;10.008;2023-04-03T04:48:29;3.80;;;3.40;;
8252;SDS011;61313;48.396;10.008;2023-04-03T04:50:55;4.00;;;3.43;;
8252;SDS011;61313;48.396;10.008;2023-04-03T04:53:20;3.60;;;3.30;;
8252;SDS011;61313;48.396;10.008;2023-04-03T04:55:46;3.50;;;3.20;;
8252;SDS011;61313;48.396;10.008;2023-04-03T04:58:11;4.93;;;4.20;;
8252;SDS011;61313;48.396;10.008;2023-04-03T05:00:37;3.43;;;3.13;;
8252;SDS011;61313;48.396;10.008;2023-04-03T05:03:02;4.80;;;3.80;;
8252;SDS011;61313;48.396;10.008;2023-04-03T05:05:28;5.20;;;4.30;;
8252;SDS011;61313;48.396;10.008;2023-04-03T05:07:53;3.90;;;3.33;;
8252;SDS011;61313;48.396;10.008;2023-04-03T05:10:19;4.93;;;3.63;;
8252;SDS011;61313;48.396;10.008;2023-04-03T05:12:45;3.43;;;3.13;;
8252;SDS011;61313;48.396;10.008;2023-04-03T05:15:11;4.60;;;3.20;;
8252;SDS011;61313;48.396;10.008;2023-04-03T05:17:36;5.00;;;3.40;;
8252;SDS011;61313;48.396;10.008;2023-04-03T05:20:02;9.23;;;3.13;;
8252;SDS011;61313;48.396;10.008;2023-04-03T05:22:29;4.00;;;3.43;;
8252;SDS011;61313;48.396;10.008;2023-04-03T05:24:55;2.90;;;2.70;;
8252;SDS011;61313;48.396;10.008;2023-04-03T05:27:20;4.10;;;3.10;;
8252;SDS011;61313;48.396;10.008;2023-04-03T05:29:46;5.10;;;3.70;;
8252;SDS011;61313;48.396;10.008;2023-04-03T05:32:11;6.00;;;3.77;;
8252;SDS011;61313;48.396;10.008;2023-04-03T05:34:37;3.90;;;3.10;;
8252;SDS011;61313;48.396;10.008;2023-04-03T05:37:02;4.97;;;4.50;;
8252;SDS011;61313;48.396;10.008;2023-04-03T05:39:29;3.70;;;3.27;;
8252;SDS011;61313;48.396;10.008;2023-04-03T05:41:56;3.80;;;3.37;;
8252;SDS011;61313;48.396;10.008;2023-04-03T05:44:22;12.20;;;4.20;;
8252;SDS011;61313;48.396;10.008;2023-04-03T05:46:47;3.90;;;3.50;;
8252;SDS011;61313;48.396;10.008;2023-04-03T05:49:12;6.33;;;3.43;;
8252;SDS011;61313;48.396;10.008;2023-04-03T05:51:38;6.23;;;3.60;;
8252;SDS011;61313;48.396;10.008;2023-04-03T05:54:16;4.10;;;3.73;;
8252;SDS011;61313;48.396;10.008;2023-04-03T05:56:42;4.27;;;3.70;;
8252;SDS011;61313;48.396;10.008;2023-04-03T05:59:08;4.20;;;3.20;;
8252;SDS011;61313;48.396;10.008;2023-04-03T06:01:34;4.37;;;4.00;;
8252;SDS011;61313;48.396;10.008;2023-04-03T06:03:59;5.60;;;3.40;;
8252;SDS011;61313;48.396;10.008;2023-04-03T06:06:25;5.23;;;3.60;;
8252;SDS011;61313;48.396;10.008;2023-04-03T06:08:51;4.00;;;3.60;;
8252;SDS011;61313;48.396;10.008;2023-04-03T06:11:16;4.70;;;3.70;;
8252;SDS011;61313;48.396;10.008;2023-04-03T06:13:42;3.93;;;3.50;;
8252;SDS011;61313;48.396;10.008;2023-04-03T06:16:09;3.90;;;3.50;;
8252;SDS011;61313;48.396;10.008;2023-04-03T06:18:39;4.43;;;3.63;;
8252;SDS011;61313;48.396;10.008;2023-04-03T06:21:04;4.90;;;4.40;;
8252;SDS011;61313;48.396;10.008;2023-04-03T06:23:30;4.23;;;3.40;;
8252;SDS011;61313;48.396;10.008;2023-04-03T06:25:57;3.33;;;3.03;;
8252;SDS011;61313;48.396;10.008;2023-04-03T06:28:23;3.87;;;3.50;;
8252;SDS011;61313;48.396;10.008;2023-04-03T06:30:48;6.40;;;4.10;;
8252;SDS011;61313;48.396;10.008;2023-04-03T06:33:14;3.40;;;3.10;;
8252;SDS011;61313;48.396;10.008;2023-04-03T06:35:39;6.20;;;4.00;;
8252;SDS011;61313;48.396;10.008;2023-04-03T06:38:05;6.07;;;3.63;;
8252;SDS011;61313;48.396;10.008;2023-04-03T06:40:34;3.87;;;3.30;;
8252;SDS011;61313;48.396;10.008;2023-04-03T06:43:21;4.40;;;3.60;;
8252;SDS011;61313;48.396;10.008;2023-04-03T06:45:46;4.67;;;3.70;;
8252;SDS011;61313;48.396;10.008;2023-04-03T06:48:12;4.10;;;3.30;;
8252;SDS011;61313;48.396;10.008;2023-04-03T06:50:38;31.17;;;6.17;;
8252;SDS011;61313;48.396;10.008;2023-04-03T06:53:04;4.67;;;3.90;;
8252;SDS011;61313;48.396;10.008;2023-04-03T06:55:29;4.43;;;2.90;;
8252;SDS011;61313;48.396;10.008;2023-04-03T06:57:55;6.30;;;4.20;;
8252;SDS011;61313;48.396;10.008;2023-04-03T07:00:20;8.40;;;4.83;;
8252;SDS011;61313;48.396;10.008;2023-04-03T07:02:46;5.43;;;3.27;;
8252;SDS011;61313;48.396;10.008;2023-04-03T07:05:12;4.57;;;3.67;;
8252;SDS011;61313;48.396;10.008;2023-04-03T07:07:38;5.30;;;3.83;;
8252;SDS011;61313;48.396;10.008;2023-04-03T07:10:04;5.70;;;4.20;;
8252;SDS011;61313;48.396;10.008;2023-04-03T07:12:31;6.23;;;4.03;;
8252;SDS011;61313;48.396;10.008;2023-04-03T07:14:56;7.03;;;4.57;;
8252;SDS011;61313;48.396;10.008;2023-04-03T07:17:22;4.40;;;4.00;;
8252;SDS011;61313;48.396;10.008;2023-04-03T07:19:47;4.07;;;3.43;;
8252;SDS011;61313;48.396;10.008;2023-04-03T07:22:13;8.20;;;3.30;;
8252;SDS011;61313;48.396;10.008;2023-04-03T07:24:38;5.17;;;3.60;;
8252;SDS011;61313;48.396;10.008;2023-04-03T07:27:04;4.87;;;4.40;;
8252;SDS011;61313;48.396;10.008;2023-04-03T07:29:30;5.63;;;4.20;;
8252;SDS011;61313;48.396;10.008;2023-04-03T07:31:56;4.20;;;3.80;;
8252;SDS011;61313;48.396;10.008;2023-04-03T07:34:22;6.23;;;4.60;;
8252;SDS011;61313;48.396;10.008;2023-04-03T07:36:47;4.40;;;3.70;;
8252;SDS011;61313;48.396;10.008;2023-04-03T07:39:13;6.20;;;3.60;;
8252;SDS011;61313;48.396;10.008;2023-04-03T07:41:38;5.30;;;3.83;;
8252;SDS011;61313;48.396;10.008;2023-04-03T07:44:04;4.97;;;4.30;;
8252;SDS011;61313;48.396;10.008;2023-04-03T07:46:30;4.60;;;4.20;;
8252;SDS011;61313;48.396;10.008;2023-04-03T07:48:56;4.10;;;3.70;;
8252;SDS011;61313;48.396;10.008;2023-04-03T07:51:22;5.70;;;3.83;;
8252;SDS011;61313;48.396;10.008;2023-04-03T07:53:48;4.67;;;3.83;;
8252;SDS011;61313;48.396;10.008;2023-04-03T07:56:14;14.43;;;3.97;;
8252;SDS011;61313;48.396;10.008;2023-04-03T07:58:39;4.63;;;4.00;;
8252;SDS011;61313;48.396;10.008;2023-04-03T08:01:05;4.30;;;3.90;;
8252;SDS011;61313;48.396;10.008;2023-04-03T08:03:31;3.77;;;3.43;;
8252;SDS011;61313;48.396;10.008;2023-04-03T08:06:01;8.40;;;4.30;;
8252;SDS011;61313;48.396;10.008;2023-04-03T08:08:30;4.43;;;3.70;;
8252;SDS011;61313;48.396;10.008;2023-04-03T08:10:57;5.83;;;3.63;;
8252;SDS011;61313;48.396;10.008;2023-04-03T08:13:23;5.43;;;4.60;;
8252;SDS011;61313;48.396;10.008;2023-04-03T08:15:49;4.30;;;4.00;;
8252;SDS011;61313;48.396;10.008;2023-04-03T08:18:15;4.90;;;4.40;;
8252;SDS011;61313;48.396;10.008;2023-04-03T08:20:41;5.10;;;4.30;;
8252;SDS011;61313;48.396;10.008;2023-04-03T08:23:08;6.27;;;3.70;;
8252;SDS011;61313;48.396;10.008;2023-04-03T08:25:37;6.40;;;3.80;;
8252;SDS011;61313;48.396;10.008;2023-04-03T08:28:04;5.60;;;4.00;;
8252;SDS011;61313;48.396;10.008;2023-04-03T08:33:17;5.27;;;3.80;;
8252;SDS011;61313;48.396;10.008;2023-04-03T08:35:42;5.90;;;4.13;;
8252;SDS011;61313;48.396;10.008;2023-04-03T08:38:09;5.00;;;4.43;;
8252;SDS011;61313;48.396;10.008;2023-04-03T08:40:35;4.67;;;4.20;;
8252;SDS011;61313;48.396;10.008;2023-04-03T08:45:48;6.97;;;4.93;;
8252;SDS011;61313;48.396;10.008;2023-04-03T08:51:00;4.27;;;3.87;;
8252;SDS011;61313;48.396;10.008;2023-04-03T08:53:32;4.90;;;4.07;;
8252;SDS011;61313;48.396;10.008;2023-04-03T08:56:04;10.60;;;4.60;;
8252;SDS011;61313;48.396;10.008;2023-04-03T08:58:41;6.20;;;4.60;;
8252;SDS011;61313;48.396;10.008;2023-04-03T09:01:49;5.33;;;4.30;;
8252;SDS011;61313;48.396;10.008;2023-04-03T09:04:14;6.20;;;4.55;;
8252;SDS011;61313;48.396;10.008;2023-04-03T09:06:45;5.60;;;4.40;;
8252;SDS011;61313;48.396;10.008;2023-04-03T09:09:30;5.40;;;3.83;;
8252;SDS011;61313;48.396;10.008;2023-04-03T09:17:35;14.93;;;4.77;;
8252;SDS011;61313;48.396;10.008;2023-04-03T09:23:15;5.43;;;4.20;;
8252;SDS011;61313;48.396;10.008;2023-04-03T09:25:53;4.30;;;3.87;;
8252;SDS011;61313;48.396;10.008;2023-04-03T09:28:25;5.97;;;4.97;;
8252;SDS011;61313;48.396;10.008;2023-04-03T09:30:52;6.23;;;4.50;;
8252;SDS011;61313;48.396;10.008;2023-04-03T09:33:18;5.37;;;4.87;;
8252;SDS011;61313;48.396;10.008;2023-04-03T09:35:46;5.37;;;4.13;;
8252;SDS011;61313;48.396;10.008;2023-04-03T09:40:43;10.33;;;4.90;;
8252;SDS011;61313;48.396;10.008;2023-04-03T09:43:28;6.43;;;4.67;;
8252;SDS011;61313;48.396;10.008;2023-04-03T09:45:56;6.50;;;4.43;;
8252;SDS011;61313;48.396;10.008;2023-04-03T09:48:41;5.20;;;4.70;;
8252;SDS011;61313;48.396;10.008;2023-04-03T09:51:16;5.40;;;4.20;;
8252;SDS011;61313;48.396;10.008;2023-04-03T09:53:42;5.63;;;4.93;;
8252;SDS011;61313;48.396;10.008;2023-04-03T09:58:41;5.60;;;5.00;;
8252;SDS011;61313;48.396;10.008;2023-04-03T10:01:21;5.60;;;5.00;;
8252;SDS011;61313;48.396;10.008;2023-04-03T10:04:14;7.63;;;5.00;;
8252;SDS011;61313;48.396;10.008;2023-04-03T10:06:45;6.30;;;4.20;;
8252;SDS011;61313;48.396;10.008;2023-04-03T10:22:36;6.37;;;3.93;;
8252;SDS011;61313;48.396;10.008;2023-04-03T10:36:53;5.13;;;3.60;;
8252;SDS011;61313;48.396;10.008;2023-04-03T10:50:38;4.03;;;3.73;;
8252;SDS011;61313;48.396;10.008;2023-04-03T10:53:08;7.27;;;4.10;;
8252;SDS011;61313;48.396;10.008;2023-04-03T10:55:40;4.80;;;4.30;;
8252;SDS011;61313;48.396;10.008;2023-04-03T10:58:29;5.70;;;4.43;;
8252;SDS011;61313;48.396;10.008;2023-04-03T11:01:01;4.50;;;4.10;;
8252;SDS011;61313;48.396;10.008;2023-04-03T11:03:34;5.15;;;4.10;;
8252;SDS011;61313;48.396;10.008;2023-04-03T11:06:06;5.03;;;4.40;;
8252;SDS011;61313;48.396;10.008;2023-04-03T11:08:38;4.60;;;3.93;;
8252;SDS011;61313;48.396;10.008;2023-04-03T11:14:11;4.13;;;3.77;;
8252;SDS011;61313;48.396;10.008;2023-04-03T11:16:45;26.07;;;4.73;;
8252;SDS011;61313;48.396;10.008;2023-04-03T11:19:28;6.83;;;4.70;;
8252;SDS011;61313;48.396;10.008;2023-04-03T11:24:36;5.07;;;4.57;;
8252;SDS011;61313;48.396;10.008;2023-04-03T11:27:08;6.27;;;4.60;;
8252;SDS011;61313;48.396;10.008;2023-04-03T11:29:48;4.50;;;4.10;;
8252;SDS011;61313;48.396;10.008;2023-04-03T11:35:10;4.07;;;3.70;;
8252;SDS011;61313;48.396;10.008;2023-04-03T11:40:19;4.93;;;3.87;;
8252;SDS011;61313;48.396;10.008;2023-04-03T11:42:55;3.97;;;3.50;;
8252;SDS011;61313;48.396;10.008;2023-04-03T11:45:34;4.40;;;4.00;;
8252;SDS011;61313;48.396;10.008;2023-04-03T11:50:58;5.63;;;4.00;;
8252;SDS011;61313;48.396;10.008;2023-04-03T11:55:56;8.60;;;4.27;;
8252;SDS011;61313;48.396;10.008;2023-04-03T11:58:26;4.50;;;3.60;;
8252;SDS011;61313;48.396;10.008;2023-04-03T12:01:11;5.77;;;4.10;;
8252;SDS011;61313;48.396;10.008;2023-04-03T12:04:08;4.53;;;3.90;;
8252;SDS011;61313;48.396;10.008;2023-04-03T12:09:05;3.70;;;3.40;;
8252;SDS011;61313;48.396;10.008;2023-04-03T12:11:48;5.83;;;4.13;;
8252;SDS011;61313;48.396;10.008;2023-04-03T12:14:15;4.27;;;3.33;;
8252;SDS011;61313;48.396;10.008;2023-04-03T12:16:43;3.60;;;3.17;;
8252;SDS011;61313;48.396;10.008;2023-04-03T12:29:20;4.83;;;3.50;;
8252;SDS011;61313;48.396;10.008;2023-04-03T12:45:46;5.80;;;3.80;;
8252;SDS011;61313;48.396;10.008;2023-04-03T12:48:17;6.20;;;4.93;;
8252;SDS011;61313;48.396;10.008;2023-04-03T12:50:47;32.47;;;4.87;;
8252;SDS011;61313;48.396;10.008;2023-04-03T12:53:16;11.37;;;4.27;;
8252;SDS011;61313;48.396;10.008;2023-04-03T12:55:44;5.03;;;3.57;;
8252;SDS011;61313;48.396;10.008;2023-04-03T12:58:14;10.23;;;3.40;;
8252;SDS011;61313;48.396;10.008;2023-04-03T13:01:00;6.10;;;3.30;;
8252;SDS011;61313;48.396;10.008;2023-04-03T13:03:35;4.30;;;3.30;;
8252;SDS011;61313;48.396;10.008;2023-04-03T13:06:04;4.23;;;3.20;;
8252;SDS011;61313;48.396;10.008;2023-04-03T13:08:30;8.20;;;3.67;;
8252;SDS011;61313;48.396;10.008;2023-04-03T13:11:02;4.00;;;3.40;;
8252;SDS011;61313;48.396;10.008;2023-04-03T13:13:30;4.30;;;3.50;;
8252;SDS011;61313;48.396;10.008;2023-04-03T13:15:56;4.40;;;3.30;;
8252;SDS011;61313;48.396;10.008;2023-04-03T13:18:23;4.93;;;3.77;;
8252;SDS011;61313;48.396;10.008;2023-04-03T13:21:19;3.90;;;3.43;;
8252;SDS011;61313;48.396;10.008;2023-04-03T13:23:58;3.33;;;3.03;;
8252;SDS011;61313;48.396;10.008;2023-04-03T13:26:27;3.30;;;2.80;;
8252;SDS011;61313;48.396;10.008;2023-04-03T13:29:00;4.67;;;3.73;;
8252;SDS011;61313;48.396;10.008;2023-04-03T13:31:30;6.00;;;3.27;;
8252;SDS011;61313;48.396;10.008;2023-04-03T13:36:31;4.43;;;3.37;;
8252;SDS011;61313;48.396;10.008;2023-04-03T13:39:00;5.83;;;4.00;;
8252;SDS011;61313;48.396;10.008;2023-04-03T13:41:31;3.63;;;2.73;;
8252;SDS011;61313;48.396;10.008;2023-04-03T13:44:15;6.43;;;3.43;;
8252;SDS011;61313;48.396;10.008;2023-04-03T13:46:51;4.33;;;3.50;;
8252;SDS011;61313;48.396;10.008;2023-04-03T13:49:20;4.10;;;3.30;;
8252;SDS011;61313;48.396;10.008;2023-04-03T13:51:57;3.87;;;3.30;;
8252;SDS011;61313;48.396;10.008;2023-04-03T13:54:24;3.63;;;2.87;;
8252;SDS011;61313;48.396;10.008;2023-04-03T13:57:01;5.80;;;3.40;;
8252;SDS011;61313;48.396;10.008;2023-04-03T13:59:32;3.80;;;3.50;;
8252;SDS011;61313;48.396;10.008;2023-04-03T14:04:50;4.37;;;3.20;;
8252;SDS011;61313;48.396;10.008;2023-04-03T14:07:16;4.33;;;3.47;;
8252;SDS011;61313;48.396;10.008;2023-04-03T14:09:43;3.83;;;3.20;;
8252;SDS011;61313;48.396;10.008;2023-04-03T14:12:16;7.97;;;2.93;;
8252;SDS011;61313;48.396;10.008;2023-04-03T14:14:46;8.47;;;4.00;;
8252;SDS011;61313;48.396;10.008;2023-04-03T14:17:16;4.10;;;3.17;;
8252;SDS011;61313;48.396;10.008;2023-04-03T14:19:43;4.33;;;2.93;;
8252;SDS011;61313;48.396;10.008;2023-04-03T14:22:29;3.80;;;3.40;;
8252;SDS011;61313;48.396;10.008;2023-04-03T14:24:57;13.07;;;4.30;;
8252;SDS011;61313;48.396;10.008;2023-04-03T14:27:25;3.80;;;2.27;;
8252;SDS011;61313;48.396;10.008;2023-04-03T14:29:53;5.40;;;3.73;;
8252;SDS011;61313;48.396;10.008;2023-04-03T14:32:21;4.30;;;2.67;;
8252;SDS011;61313;48.396;10.008;2023-04-03T14:34:48;7.73;;;3.30;;
8252;SDS011;61313;48.396;10.008;2023-04-03T14:37:24;13.37;;;3.90;;
8252;SDS011;61313;48.396;10.008;2023-04-03T14:39:53;6.00;;;4.37;;
8252;SDS011;61313;48.396;10.008;2023-04-03T14:42:21;3.80;;;2.90;;
8252;SDS011;61313;48.396;10.008;2023-04-03T14:44:49;3.90;;;2.53;;
8252;SDS011;61313;48.396;10.008;2023-04-03T14:47:17;4.40;;;2.80;;
8252;SDS011;61313;48.396;10.008;2023-04-03T14:49:45;3.87;;;2.63;;
8252;SDS011;61313;48.396;10.008;2023-04-03T14:52:16;3.63;;;3.33;;
8252;SDS011;61313;48.396;10.008;2023-04-03T14:54:43;4.50;;;3.00;;
8252;SDS011;61313;48.396;10.008;2023-04-03T14:57:08;5.27;;;2.90;;
8252;SDS011;61313;48.396;10.008;2023-04-03T14:59:36;4.00;;;3.20;;
8252;SDS011;61313;48.396;10.008;2023-04-03T15:02:02;6.63;;;4.70;;
8252;SDS011;61313;48.396;10.008;2023-04-03T15:04:27;4.17;;;3.13;;
8252;SDS011;61313;48.396;10.008;2023-04-03T15:06:53;4.57;;;3.67;;
8252;SDS011;61313;48.396;10.008;2023-04-03T15:09:19;4.43;;;3.10;;
8252;SDS011;61313;48.396;10.008;2023-04-03T15:11:46;5.17;;;3.20;;
8252;SDS011;61313;48.396;10.008;2023-04-03T15:14:12;3.90;;;2.80;;
8252;SDS011;61313;48.396;10.008;2023-04-03T15:16:37;4.43;;;4.00;;
8252;SDS011;61313;48.396;10.008;2023-04-03T15:19:03;3.00;;;2.70;;
8252;SDS011;61313;48.396;10.008;2023-04-03T15:21:28;5.20;;;3.67;;
8252;SDS011;61313;48.396;10.008;2023-04-03T15:23:54;9.00;;;3.47;;
8252;SDS011;61313;48.396;10.008;2023-04-03T15:26:19;5.03;;;3.20;;
8252;SDS011;61313;48.396;10.008;2023-04-03T15:28:48;3.80;;;3.40;;
8252;SDS011;61313;48.396;10.008;2023-04-03T15:31:14;5.27;;;3.07;;
8252;SDS011;61313;48.396;10.008;2023-04-03T15:33:49;3.53;;;3.20;;
8252;SDS011;61313;48.396;10.008;2023-04-03T15:36:14;3.63;;;2.63;;
8252;SDS011;61313;48.396;10.008;2023-04-03T15:38:40;3.17;;;2.70;;
8252;SDS011;61313;48.396;10.008;2023-04-03T15:41:05;6.13;;;2.83;;
8252;SDS011;61313;48.396;10.008;2023-04-03T15:43:31;2.97;;;2.77;;
8252;SDS011;61313;48.396;10.008;2023-04-03T15:45:58;8.10;;;5.17;;
8252;SDS011;61313;48.396;10.008;2023-04-03T15:48:25;4.00;;;3.60;;
8252;SDS011;61313;48.396;10.008;2023-04-03T15:50:52;13.83;;;6.53;;
8252;SDS011;61313;48.396;10.008;2023-04-03T15:53:17;5.63;;;4.93;;
8252;SDS011;61313;48.396;10.008;2023-04-03T15:55:43;4.83;;;2.97;;
8252;SDS011;61313;48.396;10.008;2023-04-03T15:58:09;3.13;;;2.57;;
8252;SDS011;61313;48.396;10.008;2023-04-03T16:00:35;4.83;;;2.60;;
8252;SDS011;61313;48.396;10.008;2023-04-03T16:03:06;3.57;;;2.90;;
8252;SDS011;61313;48.396;10.008;2023-04-03T16:05:36;5.20;;;2.43;;
8252;SDS011;61313;48.396;10.008;2023-04-03T16:08:03;4.37;;;2.47;;
8252;SDS011;61313;48.396;10.008;2023-04-03T16:10:30;5.47;;;2.90;;
8252;SDS011;61313;48.396;10.008;2023-04-03T16:12:56;3.10;;;2.60;;
8252;SDS011;61313;48.396;10.008;2023-04-03T16:15:21;3.63;;;3.03;;
8252;SDS011;61313;48.396;10.008;2023-04-03T16:17:49;3.60;;;2.43;;
8252;SDS011;61313;48.396;10.008;2023-04-03T16:20:15;3.37;;;3.07;;
8252;SDS011;61313;48.396;10.008;2023-04-03T16:22:41;5.07;;;3.20;;
8252;SDS011;61313;48.396;10.008;2023-04-03T16:25:07;4.93;;;3.00;;
8252;SDS011;61313;48.396;10.008;2023-04-03T16:27:34;3.73;;;2.77;;
8252;SDS011;61313;48.396;10.008;2023-04-03T16:29:59;4.30;;;2.93;;
8252;SDS011;61313;48.396;10.008;2023-04-03T16:32:26;3.03;;;2.63;;
8252;SDS011;61313;48.396;10.008;2023-04-03T16:34:54;2.67;;;2.40;;
8252;SDS011;61313;48.396;10.008;2023-04-03T16:37:20;3.13;;;2.80;;
8252;SDS011;61313;48.396;10.008;2023-04-03T16:39:46;4.07;;;2.80;;
8252;SDS011;61313;48.396;10.008;2023-04-03T16:42:11;2.50;;;2.30;;
8252;SDS011;61313;48.396;10.008;2023-04-03T16:44:36;4.13;;;2.97;;
8252;SDS011;61313;48.396;10.008;2023-04-03T16:47:02;2.80;;;2.60;;